createdAt,value
2023-04-25T00:00:40.724Z,99506.59
2023-04-25T00:05:44.033Z,99504.91
2023-04-25T00:10:47.552Z,99503.50
2023-04-25T00:15:52.752Z,99500.50
2023-04-25T00:20:56.429Z,99496.56
2023-04-25T00:25:59.824Z,99487.34
2023-04-25T00:31:04.969Z,99478.00
2023-04-25T00:36:09.566Z,99480.25
2023-04-25T00:41:13.030Z,99485.22
2023-04-25T00:46:17.875Z,99478.91
2023-04-25T00:51:23.326Z,99469.16
2023-04-25T00:56:26.753Z,99472.50
2023-04-25T01:01:32.366Z,99473.13
2023-04-25T01:06:35.775Z,99465.69
2023-04-25T01:11:41.246Z,99461.72
2023-04-25T01:16:46.335Z,99465.28
2023-04-25T01:21:51.140Z,99480.31
2023-04-25T01:26:57.404Z,99466.09
2023-04-25T01:32:01.553Z,99458.91
2023-04-25T01:37:06.701Z,99455.88
2023-04-25T01:42:10.012Z,99465.22
2023-04-25T01:47:13.305Z,99471.34
2023-04-25T01:52:17.979Z,99472.63
2023-04-25T01:57:21.499Z,99473.66
2023-04-25T02:02:25.018Z,99473.47
2023-04-25T02:07:29.974Z,99469.09
2023-04-25T02:12:33.504Z,99455.91
2023-04-25T02:17:36.913Z,99480.97
2023-04-25T02:22:41.764Z,99469.28
2023-04-25T02:27:45.116Z,99467.41
2023-04-25T02:32:49.116Z,99429.91
2023-04-25T02:37:54.159Z,99473.00
2023-04-25T02:42:57.466Z,99469.75
2023-04-25T02:48:00.995Z,99462.72
2023-04-25T02:53:05.792Z,99481.06
2023-04-25T02:58:09.146Z,99472.13
2023-04-25T03:03:12.963Z,99474.47
2023-04-25T03:08:18.251Z,99475.03
2023-04-25T03:13:21.441Z,99465.06
2023-04-25T03:18:25.042Z,99472.53
2023-04-25T03:23:29.770Z,99470.66
2023-04-25T03:28:32.973Z,99468.00
2023-04-25T03:33:36.239Z,99475.22
2023-04-25T03:38:42.436Z,99474.06
2023-04-25T03:43:45.682Z,99480.41
2023-04-25T03:48:49.004Z,99472.50
2023-04-25T03:53:54.280Z,99465.94
2023-04-25T03:58:58.061Z,99479.53
2023-04-25T04:04:01.581Z,99471.81
2023-04-25T04:09:10.022Z,99461.41
2023-04-25T04:14:13.389Z,99473.06
2023-04-25T04:19:16.917Z,99477.50
2023-04-25T04:24:21.677Z,99471.88
2023-04-25T04:29:24.975Z,99469.28
2023-04-25T04:34:28.440Z,99467.28
2023-04-25T04:39:33.248Z,99460.22
2023-04-25T04:44:38.035Z,99463.78
2023-04-25T04:49:41.326Z,99467.00
2023-04-25T04:54:46.120Z,99459.53
2023-04-25T04:59:49.321Z,99456.44
2023-04-25T05:04:52.836Z,99452.53
2023-04-25T05:09:57.691Z,99456.59
2023-04-25T05:15:01.395Z,99461.56
2023-04-25T05:20:06.905Z,99450.47
2023-04-25T05:25:12.285Z,99446.81
2023-04-25T05:30:15.709Z,99437.16
2023-04-25T05:35:19.141Z,99434.25
2023-04-25T05:40:23.913Z,99397.78
2023-04-25T05:45:27.535Z,99421.88
2023-04-25T05:50:30.964Z,99407.91
2023-04-25T05:55:35.562Z,99399.41
2023-04-25T06:00:39.411Z,99406.34
2023-04-25T06:05:43.315Z,99399.34
2023-04-25T06:10:47.974Z,99389.78
2023-04-25T06:15:51.416Z,99385.44
2023-04-25T06:20:54.747Z,99386.03
2023-04-25T06:25:59.757Z,99387.75
2023-04-25T06:31:03.182Z,99383.31
2023-04-25T06:36:06.955Z,99389.69
2023-04-25T06:41:11.775Z,99398.44
2023-04-25T06:46:15.200Z,99396.94
2023-04-25T06:51:18.889Z,99398.06
2023-04-25T06:56:24.400Z,99393.84
2023-04-25T07:01:27.816Z,99395.78
2023-04-25T07:06:32.238Z,99393.91
2023-04-25T07:11:36.982Z,99399.28
2023-04-25T07:16:40.887Z,99397.50
2023-04-25T07:21:44.304Z,99398.16
2023-04-25T07:26:49.182Z,99368.28
2023-04-25T07:31:52.699Z,99397.22
2023-04-25T07:36:56.360Z,99393.44
2023-04-25T07:42:01.581Z,99388.22
2023-04-25T07:47:05.599Z,99381.13
2023-04-25T07:52:08.962Z,99391.66
2023-04-25T07:57:15.132Z,99373.19
2023-04-25T08:02:18.843Z,99377.84
2023-04-25T08:07:22.034Z,99372.91
2023-04-25T08:12:27.207Z,99362.41
2023-04-25T08:17:30.461Z,99357.13
2023-04-25T08:22:34.989Z,99350.91
2023-04-25T08:27:39.679Z,99359.63
2023-04-25T08:32:43.155Z,99342.03
2023-04-25T08:37:46.613Z,99330.06
2023-04-25T08:42:52.806Z,99322.16
2023-04-25T08:47:59.459Z,99320.31
2023-04-25T08:53:07.500Z,99316.19
2023-04-25T08:58:13.468Z,99312.88
2023-04-25T09:03:17.210Z,99307.31
2023-04-25T09:08:20.600Z,99300.28
2023-04-25T09:13:30.214Z,99281.06
2023-04-25T09:18:35.255Z,99289.31
2023-04-25T09:23:43.133Z,99297.78
2023-04-25T09:28:49.080Z,99287.47
2023-04-25T09:33:55.299Z,99292.75
2023-04-25T09:39:01.940Z,99275.41
2023-04-25T09:44:06.936Z,99268.25
2023-04-25T09:49:10.548Z,99265.47
2023-04-25T09:54:14.192Z,99273.91
2023-04-25T09:59:20.123Z,99253.81
2023-04-25T10:04:29.646Z,99250.63
2023-04-25T10:09:35.016Z,99247.72
2023-04-25T10:14:40.654Z,99233.63
2023-04-25T10:19:44.552Z,99243.34
2023-04-25T10:24:49.189Z,99249.34
2023-04-25T10:30:06.299Z,99230.69
2023-04-25T10:35:16.522Z,99236.09
2023-04-25T10:40:24.427Z,99226.63
2023-04-25T10:45:29.239Z,99224.44
2023-04-25T10:50:40.349Z,99211.69
2023-04-25T10:55:52.856Z,99205.78
2023-04-25T11:00:58.023Z,99193.78
2023-04-25T11:06:03.520Z,99185.84
2023-04-25T11:29:36.352Z,99165.38
2023-04-25T11:34:39.663Z,99144.41
2023-04-25T11:39:47.553Z,99144.63
2023-04-25T11:44:52.383Z,99139.44
2023-04-25T11:49:55.883Z,99134.13
2023-04-25T11:54:59.229Z,99134.81
2023-04-25T12:00:12.964Z,99131.75
2023-04-25T12:10:26.777Z,99114.31
2023-04-25T12:15:31.915Z,99109.09
2023-04-25T12:20:35.495Z,99111.63
2023-04-25T12:25:40.600Z,99086.44
2023-04-25T12:31:02.013Z,99104.69
2023-04-25T12:36:10.386Z,99101.28
2023-04-25T12:41:13.702Z,99085.78
2023-04-25T12:46:18.455Z,99077.94
2023-04-25T12:51:21.833Z,99071.84
2023-04-25T12:56:25.929Z,99066.72
2023-04-25T13:01:31.058Z,99043.09
2023-04-25T13:06:34.482Z,99042.19
2023-04-25T13:11:37.851Z,99032.50
2023-04-25T13:16:42.991Z,99015.56
2023-04-25T13:21:46.352Z,99015.63
2023-04-25T13:26:49.867Z,99008.00
2023-04-25T13:50:08.360Z,98959.75
2023-04-25T13:55:11.985Z,98971.47
2023-04-25T14:00:16.261Z,98962.88
2023-04-25T14:05:21.266Z,98962.94
2023-04-25T14:10:24.717Z,98964.84
2023-04-25T14:15:28.501Z,98946.19
2023-04-25T14:20:33.476Z,98944.63
2023-04-25T14:25:37.950Z,98938.91
2023-04-25T14:30:41.186Z,98942.13
2023-04-25T14:35:46.719Z,98934.19
2023-04-25T14:40:50.121Z,98926.75
2023-04-25T14:45:54.437Z,98916.38
2023-04-25T14:51:00.864Z,98904.47
2023-04-25T14:56:04.273Z,98896.81
2023-04-25T15:01:07.844Z,98886.59
2023-04-25T15:06:12.716Z,98881.19
2023-04-25T15:11:16.176Z,98873.34
2023-04-25T15:16:19.576Z,98864.09
2023-04-25T15:21:24.454Z,98858.59
2023-04-25T15:26:28.051Z,98854.41
2023-04-25T15:31:31.511Z,98847.03
2023-04-25T15:36:36.328Z,98840.38
2023-04-25T15:41:39.707Z,98841.09
2023-04-25T15:46:44.568Z,98828.50
2023-04-25T15:51:49.640Z,98810.53
2023-04-25T15:56:52.881Z,98816.09
2023-04-25T16:01:57.299Z,98786.94
2023-04-25T16:07:03.698Z,98809.81
2023-04-25T16:12:08.271Z,98841.91
2023-04-25T16:17:11.592Z,98852.34
2023-04-25T16:22:16.933Z,98853.34
2023-04-25T16:27:20.261Z,98851.91
2023-04-25T16:32:23.668Z,98844.88
2023-04-25T16:37:28.591Z,98826.91
2023-04-25T16:42:31.943Z,98863.00
2023-04-25T16:47:36.563Z,98855.88
2023-04-25T16:52:42.476Z,98865.44
2023-04-25T16:57:47.583Z,98872.78
2023-04-25T17:02:51.105Z,98872.78
2023-04-25T17:07:56.960Z,98879.00
2023-04-25T17:13:00.598Z,98864.81
2023-04-25T17:18:04.099Z,98870.19
2023-04-25T17:23:08.931Z,98867.09
2023-04-25T17:28:13.176Z,98862.28
2023-04-25T17:33:16.527Z,98856.13
2023-04-25T17:38:21.755Z,98847.41
2023-04-25T17:43:25.256Z,98785.16
2023-04-25T17:48:28.690Z,98796.00
2023-04-25T17:53:33.643Z,98795.25
2023-04-25T17:58:37.102Z,98793.75
2023-04-25T18:03:42.102Z,98796.75
2023-04-25T18:08:47.951Z,98790.78
2023-04-25T18:13:51.441Z,98788.69
2023-04-25T18:18:55.148Z,98791.69
2023-04-25T18:23:59.966Z,98782.41
2023-04-25T18:29:03.748Z,98783.69
2023-04-25T18:34:07.385Z,98781.34
2023-04-25T18:39:21.942Z,98772.03
2023-04-25T18:44:26.083Z,98777.81
2023-04-25T18:49:29.683Z,98771.81
2023-04-25T18:54:34.409Z,98763.19
2023-04-25T18:59:37.697Z,98750.03
2023-04-25T19:04:40.976Z,98750.25
2023-04-25T19:09:45.669Z,98738.06
2023-04-25T19:14:50.525Z,98733.19
2023-04-25T19:19:54.290Z,98717.56
2023-04-25T19:25:09.836Z,98721.94
2023-04-25T19:30:14.678Z,98708.81
2023-04-25T19:35:18.293Z,98700.06
2023-04-25T19:40:23.607Z,98693.22
2023-04-25T19:45:27.066Z,98685.44
2023-04-25T19:50:30.889Z,98681.06
2023-04-25T19:55:35.904Z,98677.66
2023-04-25T20:00:39.316Z,98668.88
2023-04-25T20:05:42.598Z,98652.66
2023-04-25T20:10:47.492Z,98644.13
2023-04-25T20:15:50.763Z,98632.06
2023-04-25T20:20:55.464Z,98631.53
2023-04-25T20:26:00.116Z,98612.97
2023-04-25T20:31:03.398Z,98609.66
2023-04-25T20:36:06.922Z,98604.53
2023-04-25T20:41:11.754Z,98595.03
2023-04-25T20:46:16.154Z,98584.69
2023-04-25T20:51:20.421Z,98561.97
2023-04-25T20:56:26.622Z,98573.06
2023-04-25T21:01:30.325Z,98567.72
2023-04-25T21:06:34.655Z,98569.44
2023-04-25T21:11:39.643Z,98553.22
2023-04-25T21:16:42.989Z,98550.22
2023-04-25T21:21:47.528Z,98552.75
2023-04-25T21:26:52.206Z,98543.78
2023-04-25T21:31:56.812Z,98534.31
2023-04-25T21:37:00.047Z,98529.94
2023-04-25T21:42:06.376Z,98533.56
2023-04-25T21:47:09.761Z,98534.63
2023-04-25T21:52:13.237Z,98518.97
2023-04-25T21:57:18.354Z,98509.91
2023-04-25T22:02:22.050Z,98512.03
2023-04-25T22:07:25.484Z,98499.88
2023-04-25T22:12:30.273Z,98500.31
2023-04-25T22:17:34.099Z,98485.59
2023-04-25T22:22:37.285Z,98485.16
2023-04-25T22:27:43.007Z,98479.22
2023-04-25T22:32:46.583Z,98467.88
2023-04-25T22:37:50.457Z,98457.63
2023-04-25T22:42:55.544Z,98449.97
2023-04-25T22:47:58.857Z,98437.06
2023-04-25T22:53:04.128Z,98429.50
2023-04-25T22:58:09.636Z,98430.56
2023-04-25T23:03:13.346Z,98420.22
2023-04-25T23:08:17.241Z,98416.94
2023-04-25T23:13:22.215Z,98387.69
2023-04-25T23:18:25.509Z,98390.81
2023-04-25T23:23:28.845Z,98387.28
2023-04-25T23:28:33.482Z,98378.75
2023-04-25T23:33:37.117Z,98364.25
2023-04-25T23:38:40.472Z,98374.28
2023-04-25T23:43:45.193Z,98373.44
2023-04-25T23:48:48.361Z,98371.72
2023-04-25T23:53:51.969Z,98364.72
2023-04-25T23:58:56.800Z,98371.72
